createdAt,value
2022-08-09T00:02:29.218Z,28.41
2022-08-09T00:07:31.252Z,28.61
2022-08-09T00:12:47.255Z,28.87
2022-08-09T00:18:05.358Z,29.33
2022-08-09T00:23:55.928Z,28.79
2022-08-09T00:28:35.933Z,28.69
2022-08-09T00:33:50.521Z,29.19
2022-08-09T00:38:53.765Z,29.64
2022-08-09T00:44:10.306Z,29.61
2022-08-09T00:49:18.139Z,29.72
2022-08-09T00:54:23.162Z,29.97
2022-08-09T00:59:40.961Z,30.00
2022-08-09T01:05:05.445Z,29.72
2022-08-09T01:10:21.207Z,29.10
2022-08-09T01:15:31.503Z,30.12
2022-08-09T01:20:47.733Z,30.14
2022-08-09T01:25:57.207Z,29.87
2022-08-09T01:31:01.343Z,29.46
2022-08-09T01:36:06.375Z,29.32
2022-08-09T01:41:13.365Z,28.68
2022-08-09T01:46:18.212Z,28.25
2022-08-09T01:51:27.553Z,28.53
2022-08-09T01:56:35.567Z,28.70
2022-08-09T02:02:00.030Z,28.88
2022-08-09T02:07:18.308Z,28.88
2022-08-09T02:12:35.263Z,28.70
2022-08-09T02:18:09.628Z,29.36
2022-08-09T02:23:18.763Z,29.64
2022-08-09T02:28:24.940Z,29.56
2022-08-09T02:33:38.199Z,29.99
2022-08-09T02:38:55.501Z,30.26
2022-08-09T02:44:01.586Z,30.17
2022-08-09T02:49:16.531Z,30.81
2022-08-09T02:54:19.201Z,31.07
2022-08-09T02:59:25.777Z,31.02
2022-08-09T03:04:29.711Z,31.46
2022-08-09T03:09:33.707Z,32.31
2022-08-09T03:14:36.586Z,32.16
2022-08-09T03:19:58.528Z,32.16
2022-08-09T03:25:05.959Z,32.26
2022-08-09T03:30:29.846Z,32.59
2022-08-09T03:36:11.427Z,33.11
2022-08-09T03:40:58.407Z,33.10
2022-08-09T03:46:19.587Z,33.08
2022-08-09T03:51:56.537Z,34.25
2022-08-09T03:56:46.604Z,34.38
2022-08-09T04:01:50.613Z,34.32
2022-08-09T04:06:52.615Z,34.87
2022-08-09T04:12:30.122Z,35.09
2022-08-09T04:17:32.943Z,35.67
2022-08-09T04:22:35.699Z,35.58
2022-08-09T04:27:48.907Z,35.73
2022-08-09T04:32:52.060Z,35.42
2022-08-09T04:37:53.994Z,35.88
2022-08-09T04:42:56.833Z,35.92
2022-08-09T04:48:02.097Z,36.20
2022-08-09T04:53:13.120Z,36.84
2022-08-09T04:58:15.286Z,37.67
2022-08-09T05:03:41.108Z,36.80
2022-08-09T05:08:43.853Z,36.90
2022-08-09T05:13:49.491Z,36.98
2022-08-09T05:18:59.200Z,37.58
2022-08-09T05:24:04.080Z,37.59
2022-08-09T05:29:06.793Z,37.18
2022-08-09T05:34:19.119Z,37.72
2022-08-09T05:39:29.561Z,37.95
2022-08-09T05:44:35.017Z,37.66
2022-08-09T05:50:26.695Z,37.94
2022-08-09T05:55:03.033Z,38.40
2022-08-09T06:00:10.386Z,39.08
2022-08-09T06:05:16.243Z,39.06
2022-08-09T06:10:18.577Z,39.22
2022-08-09T06:15:21.198Z,39.69
2022-08-09T06:20:23.349Z,39.57
2022-08-09T06:25:26.309Z,39.91
2022-08-09T06:30:29.204Z,39.24
2022-08-09T06:35:35.758Z,39.61
2022-08-09T06:40:54.829Z,39.97
2022-08-09T06:46:04.736Z,40.33
2022-08-09T06:51:12.604Z,39.79
2022-08-09T06:56:16.964Z,39.82
2022-08-09T07:01:21.531Z,39.74
2022-08-09T07:06:28.047Z,40.39
2022-08-09T07:11:45.453Z,40.80
2022-08-09T07:16:57.901Z,40.96
2022-08-09T07:22:00.464Z,39.97
2022-08-09T07:27:04.252Z,40.28
2022-08-09T07:32:13.176Z,40.26
2022-08-09T07:37:15.762Z,39.50
2022-08-09T07:42:18.439Z,39.67
2022-08-09T07:47:21.280Z,38.89
2022-08-09T07:52:25.007Z,39.23
2022-08-09T07:57:35.620Z,38.95
2022-08-09T08:02:42.700Z,38.61
2022-08-09T08:08:45.216Z,37.52
2022-08-09T08:13:06.762Z,37.47
2022-08-09T08:18:14.333Z,36.98
2022-08-09T08:23:18.747Z,36.52
2022-08-09T08:28:32.053Z,36.55
2022-08-09T08:33:40.821Z,35.05
2022-08-09T08:38:56.285Z,34.31
2022-08-09T08:44:02.498Z,33.37
2022-08-09T08:49:12.886Z,32.46
2022-08-09T08:54:29.926Z,30.08
2022-08-09T08:59:46.492Z,29.67
2022-08-09T09:04:52.974Z,27.92
2022-08-09T09:10:02.881Z,26.81
2022-08-09T09:15:07.364Z,25.68
2022-08-09T09:20:11.129Z,25.15
2022-08-09T09:26:00.373Z,24.65
2022-08-09T09:30:58.039Z,23.84
2022-08-09T09:36:19.819Z,23.80
2022-08-09T09:41:22.940Z,23.74
2022-08-09T09:46:50.429Z,23.24
2022-08-09T09:52:02.195Z,22.23
2022-08-09T09:58:03.710Z,21.11
2022-08-09T10:02:46.875Z,21.31
2022-08-09T10:08:01.188Z,20.64
2022-08-09T10:13:10.995Z,20.62
2022-08-09T10:18:26.734Z,19.93
2022-08-09T10:23:28.896Z,20.54
2022-08-09T10:28:34.361Z,19.89
2022-08-09T10:34:09.545Z,20.22
2022-08-09T10:38:59.909Z,19.04
2022-08-09T10:44:04.035Z,19.49
2022-08-09T10:49:05.898Z,18.88
2022-08-09T10:54:13.954Z,19.63
2022-08-09T10:59:31.006Z,18.33
2022-08-09T11:04:34.068Z,18.03
2022-08-09T11:09:47.482Z,18.01
2022-08-09T11:14:55.791Z,17.68
2022-08-09T11:20:22.641Z,18.38
2022-08-09T11:25:44.773Z,18.30
2022-08-09T11:30:49.291Z,18.25
2022-08-09T11:36:01.686Z,18.16
2022-08-09T11:41:13.656Z,17.29
2022-08-09T11:46:18.424Z,18.03
2022-08-09T11:52:54.502Z,18.70
2022-08-09T11:56:50.634Z,18.72
2022-08-09T12:02:34.294Z,18.43
2022-08-09T12:07:15.164Z,18.79
2022-08-09T12:12:28.684Z,18.64
2022-08-09T12:17:42.918Z,18.75
2022-08-09T12:22:50.370Z,20.42
2022-08-09T12:28:59.850Z,20.20
2022-08-09T12:33:50.905Z,20.58
2022-08-09T12:38:56.610Z,20.82
2022-08-09T12:44:05.981Z,20.05
2022-08-09T12:49:09.598Z,19.49
2022-08-09T12:54:11.462Z,19.98
2022-08-09T12:59:20.599Z,19.64
2022-08-09T13:04:38.017Z,21.57
2022-08-09T13:09:48.197Z,20.03
2022-08-09T13:15:07.821Z,19.51
2022-08-09T13:20:17.547Z,19.25
2022-08-09T13:25:23.261Z,18.67
2022-08-09T13:30:50.819Z,19.25
2022-08-09T13:36:39.423Z,19.54
2022-08-09T13:41:54.351Z,18.95
2022-08-09T13:47:14.634Z,19.03
2022-08-09T13:52:00.666Z,20.10
2022-08-09T13:57:06.456Z,19.80
2022-08-09T14:02:08.795Z,19.63
2022-08-09T14:07:12.148Z,19.08
2022-08-09T14:12:15.634Z,19.11
2022-08-09T14:17:22.797Z,18.22
2022-08-09T14:22:25.187Z,18.99
2022-08-09T14:27:27.046Z,19.19
2022-08-09T14:32:37.765Z,19.13
2022-08-09T14:38:01.435Z,18.84
2022-08-09T14:43:02.176Z,19.05
2022-08-09T14:48:05.509Z,18.87
2022-08-09T14:53:13.852Z,20.06
2022-08-09T14:58:15.942Z,19.86
2022-08-09T15:03:20.032Z,18.54
2022-08-09T15:08:23.995Z,19.05
2022-08-09T15:13:26.204Z,17.65
2022-08-09T15:18:49.576Z,16.60
2022-08-09T15:24:00.874Z,17.04
2022-08-09T15:29:06.246Z,17.50
2022-08-09T15:34:32.420Z,17.79
2022-08-09T15:39:34.329Z,17.95
2022-08-09T15:44:46.207Z,17.80
2022-08-09T15:50:04.286Z,16.89
2022-08-09T15:55:10.077Z,16.39
2022-08-09T16:00:25.314Z,16.71
2022-08-09T16:05:47.712Z,16.26
2022-08-09T16:10:55.766Z,16.98
2022-08-09T16:16:10.586Z,17.85
2022-08-09T16:21:17.253Z,16.25
2022-08-09T16:26:33.764Z,17.01
2022-08-09T16:32:10.475Z,17.54
2022-08-09T16:36:58.163Z,18.47
2022-08-09T16:42:03.556Z,17.37
2022-08-09T16:48:39.568Z,18.08
2022-08-09T16:52:28.994Z,16.83
2022-08-09T16:58:08.852Z,16.54
2022-08-09T17:02:57.181Z,15.79
2022-08-09T17:08:42.774Z,17.65
2022-08-09T17:13:22.823Z,20.47
2022-08-09T17:18:27.127Z,19.09
2022-08-09T17:23:37.258Z,17.56
2022-08-09T17:28:54.053Z,17.66
2022-08-09T17:33:55.968Z,18.88
2022-08-09T17:39:01.203Z,20.75
2022-08-09T17:44:42.472Z,20.35
2022-08-09T17:49:30.378Z,20.82
2022-08-09T17:54:33.643Z,20.01
2022-08-09T17:59:38.340Z,21.61
2022-08-09T18:04:40.577Z,19.40
2022-08-09T18:09:45.788Z,22.91
2022-08-09T18:15:07.550Z,24.06
2022-08-09T18:20:55.555Z,22.28
2022-08-09T18:25:53.331Z,21.07
2022-08-09T18:30:59.374Z,22.46
2022-08-09T18:36:02.290Z,22.04
2022-08-09T18:41:04.182Z,23.72
2022-08-09T18:46:46.670Z,23.52
2022-08-09T18:51:38.808Z,23.04
2022-08-09T18:56:53.886Z,23.25
2022-08-09T19:01:57.156Z,25.17
2022-08-09T19:06:59.545Z,23.03
2022-08-09T19:12:04.194Z,24.66
2022-08-09T19:17:06.538Z,25.66
2022-08-09T19:22:12.138Z,23.86
2022-08-09T19:27:18.641Z,28.10
2022-08-09T19:32:21.166Z,27.86
2022-08-09T19:37:28.611Z,27.52
2022-08-09T19:42:43.785Z,26.95
2022-08-09T19:47:49.536Z,26.06
2022-08-09T19:52:52.330Z,22.50
2022-08-09T19:57:54.414Z,21.51
2022-08-09T20:04:08.275Z,20.87
2022-08-09T20:08:24.837Z,19.92
2022-08-09T20:13:37.193Z,20.40
2022-08-09T20:19:04.130Z,20.56
2022-08-09T20:24:03.897Z,21.08
2022-08-09T20:29:18.676Z,21.44
2022-08-09T20:34:20.933Z,20.54
2022-08-09T20:40:13.861Z,20.31
2022-08-09T20:45:00.313Z,20.72
2022-08-09T20:50:10.130Z,21.20
2022-08-09T20:55:17.667Z,21.08
2022-08-09T21:00:31.230Z,21.35
2022-08-09T21:05:53.446Z,21.33
2022-08-09T21:10:56.189Z,22.29
2022-08-09T21:15:58.151Z,22.59
2022-08-09T21:21:02.499Z,23.17
2022-08-09T21:26:19.874Z,24.00
2022-08-09T21:31:22.077Z,24.51
2022-08-09T21:36:27.950Z,25.10
2022-08-09T21:42:03.720Z,24.83
2022-08-09T21:46:55.540Z,25.14
2022-08-09T21:52:05.370Z,25.57
2022-08-09T21:57:07.647Z,25.57
2022-08-09T22:02:36.664Z,25.17
2022-08-09T22:07:51.678Z,25.80
2022-08-09T22:12:54.425Z,26.49
2022-08-09T22:17:56.693Z,26.47
2022-08-09T22:23:01.332Z,26.58
2022-08-09T22:28:07.372Z,27.31
2022-08-09T22:33:09.929Z,27.10
2022-08-09T22:38:12.321Z,27.53
2022-08-09T22:44:00.550Z,28.45
2022-08-09T22:48:38.910Z,28.09
2022-08-09T22:54:02.259Z,27.88
2022-08-09T22:59:57.458Z,27.40
2022-08-09T23:04:32.554Z,27.87
2022-08-09T23:09:37.727Z,28.04
2022-08-09T23:14:42.141Z,27.89
2022-08-09T23:20:00.935Z,28.12
2022-08-09T23:25:06.756Z,27.90
2022-08-09T23:30:08.971Z,27.74
2022-08-09T23:35:11.017Z,28.20
2022-08-09T23:40:13.492Z,27.79
2022-08-09T23:45:37.585Z,28.50
2022-08-09T23:50:37.277Z,28.81
2022-08-09T23:55:39.258Z,29.47
